sensor_id;sensor_type;location;lat;lon;timestamp;temperature;humidity
37974;DHT22;23796;51.458;7.000;2023-07-24T00:02:13;18.40;99.90
37974;DHT22;23796;51.458;7.000;2023-07-24T00:04:39;18.40;99.90
37974;DHT22;23796;51.458;7.000;2023-07-24T00:07:07;18.40;99.90
37974;DHT22;23796;51.458;7.000;2023-07-24T00:09:34;18.30;99.90
37974;DHT22;23796;51.458;7.000;2023-07-24T00:12:03;18.30;99.90
37974;DHT22;23796;51.458;7.000;2023-07-24T00:14:28;18.20;99.90
37974;DHT22;23796;51.458;7.000;2023-07-24T00:16:54;18.20;99.90
37974;DHT22;23796;51.458;7.000;2023-07-24T00:19:19;18.20;99.90
37974;DHT22;23796;51.458;7.000;2023-07-24T00:21:47;18.40;99.90
37974;DHT22;23796;51.458;7.000;2023-07-24T00:24:13;18.40;99.90
37974;DHT22;23796;51.458;7.000;2023-07-24T00:26:38;18.50;99.90
37974;DHT22;23796;51.458;7.000;2023-07-24T00:29:04;18.60;99.90
37974;DHT22;23796;51.458;7.000;2023-07-24T00:31:32;18.50;99.90
37974;DHT22;23796;51.458;7.000;2023-07-24T00:33:57;18.50;99.90
37974;DHT22;23796;51.458;7.000;2023-07-24T00:36:26;18.30;99.90
37974;DHT22;23796;51.458;7.000;2023-07-24T00:38:51;18.30;99.90
37974;DHT22;23796;51.458;7.000;2023-07-24T00:41:19;18.30;99.90
37974;DHT22;23796;51.458;7.000;2023-07-24T00:43:45;18.30;99.90
37974;DHT22;23796;51.458;7.000;2023-07-24T00:46:13;18.40;99.90
37974;DHT22;23796;51.458;7.000;2023-07-24T00:48:41;18.40;99.90
37974;DHT22;23796;51.458;7.000;2023-07-24T00:51:09;18.50;99.90
37974;DHT22;23796;51.458;7.000;2023-07-24T00:53:35;18.50;99.90
37974;DHT22;23796;51.458;7.000;2023-07-24T00:56:01;18.40;99.90
37974;DHT22;23796;51.458;7.000;2023-07-24T00:58:28;18.30;99.90
37974;DHT22;23796;51.458;7.000;2023-07-24T01:00:56;18.30;99.90
37974;DHT22;23796;51.458;7.000;2023-07-24T01:03:30;18.20;99.90
37974;DHT22;23796;51.458;7.000;2023-07-24T01:05:57;18.10;99.90
37974;DHT22;23796;51.458;7.000;2023-07-24T01:08:25;18.10;99.90
37974;DHT22;23796;51.458;7.000;2023-07-24T01:10:51;18.10;99.90
37974;DHT22;23796;51.458;7.000;2023-07-24T01:13:21;18.10;99.90
37974;DHT22;23796;51.458;7.000;2023-07-24T01:15:56;18.10;99.90
37974;DHT22;23796;51.458;7.000;2023-07-24T01:18:24;18.10;99.90
37974;DHT22;23796;51.458;7.000;2023-07-24T01:20:57;18.10;99.90
37974;DHT22;23796;51.458;7.000;2023-07-24T01:26:08;18.00;99.90
37974;DHT22;23796;51.458;7.000;2023-07-24T01:28:34;18.10;99.90
37974;DHT22;23796;51.458;7.000;2023-07-24T01:30:59;18.10;99.90
37974;DHT22;23796;51.458;7.000;2023-07-24T01:33:25;18.10;99.90
37974;DHT22;23796;51.458;7.000;2023-07-24T01:35:53;18.10;99.90
37974;DHT22;23796;51.458;7.000;2023-07-24T01:38:20;18.10;99.90
37974;DHT22;23796;51.458;7.000;2023-07-24T01:40:47;18.10;99.90
37974;DHT22;23796;51.458;7.000;2023-07-24T01:43:14;18.00;99.90
37974;DHT22;23796;51.458;7.000;2023-07-24T01:45:42;18.00;99.90
37974;DHT22;23796;51.458;7.000;2023-07-24T01:48:07;18.00;99.90
37974;DHT22;23796;51.458;7.000;2023-07-24T01:50:33;18.00;99.90
37974;DHT22;23796;51.458;7.000;2023-07-24T01:53:00;18.00;99.90
37974;DHT22;23796;51.458;7.000;2023-07-24T01:55:28;18.00;99.90
37974;DHT22;23796;51.458;7.000;2023-07-24T01:57:54;18.00;99.90
37974;DHT22;23796;51.458;7.000;2023-07-24T02:00:20;18.00;99.90
37974;DHT22;23796;51.458;7.000;2023-07-24T02:02:45;18.00;99.90
37974;DHT22;23796;51.458;7.000;2023-07-24T02:05:11;18.00;99.90
37974;DHT22;23796;51.458;7.000;2023-07-24T02:07:37;18.00;99.90
37974;DHT22;23796;51.458;7.000;2023-07-24T02:10:03;18.00;99.90
37974;DHT22;23796;51.458;7.000;2023-07-24T02:12:28;18.00;99.90
37974;DHT22;23796;51.458;7.000;2023-07-24T02:14:54;18.10;99.90
37974;DHT22;23796;51.458;7.000;2023-07-24T02:17:20;18.10;99.90
37974;DHT22;23796;51.458;7.000;2023-07-24T02:19:48;18.10;99.90
37974;DHT22;23796;51.458;7.000;2023-07-24T02:22:14;18.20;99.90
37974;DHT22;23796;51.458;7.000;2023-07-24T02:24:40;18.30;99.90
37974;DHT22;23796;51.458;7.000;2023-07-24T02:27:11;18.30;99.90
37974;DHT22;23796;51.458;7.000;2023-07-24T02:29:37;18.40;99.90
37974;DHT22;23796;51.458;7.000;2023-07-24T02:32:02;18.40;99.90
37974;DHT22;23796;51.458;7.000;2023-07-24T02:34:28;18.50;99.90
37974;DHT22;23796;51.458;7.000;2023-07-24T02:36:54;18.50;99.90
37974;DHT22;23796;51.458;7.000;2023-07-24T02:39:24;18.50;99.90
37974;DHT22;23796;51.458;7.000;2023-07-24T02:41:50;18.50;99.90
37974;DHT22;23796;51.458;7.000;2023-07-24T02:44:15;18.50;99.90
37974;DHT22;23796;51.458;7.000;2023-07-24T02:46:44;18.50;99.90
37974;DHT22;23796;51.458;7.000;2023-07-24T02:49:09;18.50;99.90
37974;DHT22;23796;51.458;7.000;2023-07-24T02:51:35;18.60;99.90
37974;DHT22;23796;51.458;7.000;2023-07-24T02:54:00;18.60;99.90
37974;DHT22;23796;51.458;7.000;2023-07-24T02:56:28;18.60;99.90
37974;DHT22;23796;51.458;7.000;2023-07-24T02:58:54;18.70;99.90
37974;DHT22;23796;51.458;7.000;2023-07-24T03:01:19;18.70;99.90
37974;DHT22;23796;51.458;7.000;2023-07-24T03:03:45;18.80;99.60
37974;DHT22;23796;51.458;7.000;2023-07-24T03:06:15;18.80;99.80
37974;DHT22;23796;51.458;7.000;2023-07-24T03:08:40;18.80;99.90
37974;DHT22;23796;51.458;7.000;2023-07-24T03:11:08;18.80;99.90
37974;DHT22;23796;51.458;7.000;2023-07-24T03:13:33;18.80;99.90
37974;DHT22;23796;51.458;7.000;2023-07-24T03:15:59;18.80;99.90
37974;DHT22;23796;51.458;7.000;2023-07-24T03:18:25;18.70;99.90
37974;DHT22;23796;51.458;7.000;2023-07-24T03:20:51;18.70;99.90
37974;DHT22;23796;51.458;7.000;2023-07-24T03:23:17;18.70;99.90
37974;DHT22;23796;51.458;7.000;2023-07-24T03:25:43;18.70;99.90
37974;DHT22;23796;51.458;7.000;2023-07-24T03:28:11;18.70;99.90
37974;DHT22;23796;51.458;7.000;2023-07-24T03:30:37;18.70;99.90
37974;DHT22;23796;51.458;7.000;2023-07-24T03:33:03;18.70;99.90
37974;DHT22;23796;51.458;7.000;2023-07-24T03:35:29;18.70;99.90
37974;DHT22;23796;51.458;7.000;2023-07-24T03:37:54;18.70;99.90
37974;DHT22;23796;51.458;7.000;2023-07-24T03:40:22;18.70;99.90
37974;DHT22;23796;51.458;7.000;2023-07-24T03:42:48;18.70;99.90
37974;DHT22;23796;51.458;7.000;2023-07-24T03:45:18;18.70;99.90
37974;DHT22;23796;51.458;7.000;2023-07-24T03:47:44;18.70;99.90
37974;DHT22;23796;51.458;7.000;2023-07-24T03:50:09;18.70;99.90
37974;DHT22;23796;51.458;7.000;2023-07-24T03:52:35;18.70;99.90
37974;DHT22;23796;51.458;7.000;2023-07-24T03:55:01;18.70;99.90
37974;DHT22;23796;51.458;7.000;2023-07-24T03:57:27;18.70;99.90
37974;DHT22;23796;51.458;7.000;2023-07-24T03:59:52;18.70;99.90
37974;DHT22;23796;51.458;7.000;2023-07-24T04:02:20;18.70;99.90
37974;DHT22;23796;51.458;7.000;2023-07-24T04:04:48;18.70;99.90
37974;DHT22;23796;51.458;7.000;2023-07-24T04:07:14;18.80;99.90
37974;DHT22;23796;51.458;7.000;2023-07-24T04:09:39;18.80;99.90
37974;DHT22;23796;51.458;7.000;2023-07-24T04:12:05;18.80;99.90
37974;DHT22;23796;51.458;7.000;2023-07-24T04:14:31;18.80;99.90
37974;DHT22;23796;51.458;7.000;2023-07-24T04:16:56;18.80;99.90
37974;DHT22;23796;51.458;7.000;2023-07-24T04:19:22;18.80;99.90
37974;DHT22;23796;51.458;7.000;2023-07-24T04:21:50;18.90;99.90
37974;DHT22;23796;51.458;7.000;2023-07-24T04:24:15;18.80;99.90
37974;DHT22;23796;51.458;7.000;2023-07-24T04:26:43;18.80;99.90
37974;DHT22;23796;51.458;7.000;2023-07-24T04:29:09;18.80;99.90
37974;DHT22;23796;51.458;7.000;2023-07-24T04:31:34;18.80;99.90
37974;DHT22;23796;51.458;7.000;2023-07-24T04:34:00;18.80;99.90
37974;DHT22;23796;51.458;7.000;2023-07-24T04:36:25;18.70;99.90
37974;DHT22;23796;51.458;7.000;2023-07-24T04:38:51;18.70;99.90
37974;DHT22;23796;51.458;7.000;2023-07-24T04:41:17;18.70;99.90
37974;DHT22;23796;51.458;7.000;2023-07-24T04:43:42;18.70;99.90
37974;DHT22;23796;51.458;7.000;2023-07-24T04:46:08;18.60;99.90
37974;DHT22;23796;51.458;7.000;2023-07-24T04:48:33;18.60;99.90
37974;DHT22;23796;51.458;7.000;2023-07-24T04:51:01;18.70;99.90
37974;DHT22;23796;51.458;7.000;2023-07-24T04:53:27;18.70;99.90
37974;DHT22;23796;51.458;7.000;2023-07-24T04:55:53;18.80;99.90
37974;DHT22;23796;51.458;7.000;2023-07-24T04:58:18;18.80;99.90
37974;DHT22;23796;51.458;7.000;2023-07-24T05:00:46;18.90;99.90
37974;DHT22;23796;51.458;7.000;2023-07-24T05:03:12;18.90;99.90
37974;DHT22;23796;51.458;7.000;2023-07-24T05:05:38;18.90;99.90
37974;DHT22;23796;51.458;7.000;2023-07-24T05:08:04;18.90;99.90
37974;DHT22;23796;51.458;7.000;2023-07-24T05:10:37;18.90;99.90
37974;DHT22;23796;51.458;7.000;2023-07-24T05:13:05;18.90;99.90
37974;DHT22;23796;51.458;7.000;2023-07-24T05:15:30;18.90;99.90
37974;DHT22;23796;51.458;7.000;2023-07-24T05:17:56;19.00;99.90
37974;DHT22;23796;51.458;7.000;2023-07-24T05:20:22;19.00;99.90
37974;DHT22;23796;51.458;7.000;2023-07-24T05:22:47;19.10;99.90
37974;DHT22;23796;51.458;7.000;2023-07-24T05:25:13;19.10;99.90
37974;DHT22;23796;51.458;7.000;2023-07-24T05:27:38;19.10;99.90
37974;DHT22;23796;51.458;7.000;2023-07-24T05:30:08;19.10;99.90
37974;DHT22;23796;51.458;7.000;2023-07-24T05:32:33;19.00;99.90
37974;DHT22;23796;51.458;7.000;2023-07-24T05:34:59;18.90;99.90
37974;DHT22;23796;51.458;7.000;2023-07-24T05:37:24;18.80;99.90
37974;DHT22;23796;51.458;7.000;2023-07-24T05:39:50;18.70;99.90
37974;DHT22;23796;51.458;7.000;2023-07-24T05:42:18;18.80;99.90
37974;DHT22;23796;51.458;7.000;2023-07-24T05:44:46;18.90;99.90
37974;DHT22;23796;51.458;7.000;2023-07-24T05:47:12;19.10;99.90
37974;DHT22;23796;51.458;7.000;2023-07-24T05:49:37;19.20;99.90
37974;DHT22;23796;51.458;7.000;2023-07-24T05:52:03;19.30;99.90
37974;DHT22;23796;51.458;7.000;2023-07-24T05:54:29;19.30;99.90
37974;DHT22;23796;51.458;7.000;2023-07-24T05:56:57;19.40;99.70
37974;DHT22;23796;51.458;7.000;2023-07-24T05:59:25;19.50;99.30
37974;DHT22;23796;51.458;7.000;2023-07-24T06:01:51;19.50;98.90
37974;DHT22;23796;51.458;7.000;2023-07-24T06:04:16;19.50;98.70
37974;DHT22;23796;51.458;7.000;2023-07-24T06:06:43;19.50;98.70
37974;DHT22;23796;51.458;7.000;2023-07-24T06:09:09;19.70;98.60
37974;DHT22;23796;51.458;7.000;2023-07-24T06:11:34;19.90;98.10
37974;DHT22;23796;51.458;7.000;2023-07-24T06:14:00;20.00;97.10
37974;DHT22;23796;51.458;7.000;2023-07-24T06:16:25;20.10;96.70
37974;DHT22;23796;51.458;7.000;2023-07-24T06:18:51;20.20;96.50
37974;DHT22;23796;51.458;7.000;2023-07-24T06:21:16;20.20;96.20
37974;DHT22;23796;51.458;7.000;2023-07-24T06:23:42;20.20;95.90
37974;DHT22;23796;51.458;7.000;2023-07-24T06:26:10;20.10;96.00
37974;DHT22;23796;51.458;7.000;2023-07-24T06:28:35;20.00;96.30
37974;DHT22;23796;51.458;7.000;2023-07-24T06:31:01;20.00;96.70
37974;DHT22;23796;51.458;7.000;2023-07-24T06:33:27;20.00;96.90
37974;DHT22;23796;51.458;7.000;2023-07-24T06:35:52;20.00;96.60
37974;DHT22;23796;51.458;7.000;2023-07-24T06:38:18;19.90;96.30
37974;DHT22;23796;51.458;7.000;2023-07-24T06:40:46;20.00;95.90
37974;DHT22;23796;51.458;7.000;2023-07-24T06:43:12;20.10;95.60
37974;DHT22;23796;51.458;7.000;2023-07-24T06:45:40;20.20;94.90
37974;DHT22;23796;51.458;7.000;2023-07-24T06:48:05;20.30;94.80
37974;DHT22;23796;51.458;7.000;2023-07-24T06:50:31;20.30;94.60
37974;DHT22;23796;51.458;7.000;2023-07-24T06:52:59;20.20;94.20
37974;DHT22;23796;51.458;7.000;2023-07-24T06:55:24;20.20;94.70
37974;DHT22;23796;51.458;7.000;2023-07-24T06:57:50;20.40;94.20
37974;DHT22;23796;51.458;7.000;2023-07-24T07:00:16;20.50;94.10
37974;DHT22;23796;51.458;7.000;2023-07-24T07:02:44;20.60;93.80
37974;DHT22;23796;51.458;7.000;2023-07-24T07:05:10;20.60;93.20
37974;DHT22;23796;51.458;7.000;2023-07-24T07:07:36;20.70;93.10
37974;DHT22;23796;51.458;7.000;2023-07-24T07:10:04;20.70;93.20
37974;DHT22;23796;51.458;7.000;2023-07-24T07:12:30;20.80;92.90
37974;DHT22;23796;51.458;7.000;2023-07-24T07:16:14;20.90;92.40
37974;DHT22;23796;51.458;7.000;2023-07-24T07:18:42;20.90;92.50
37974;DHT22;23796;51.458;7.000;2023-07-24T07:21:10;20.90;92.70
37974;DHT22;23796;51.458;7.000;2023-07-24T07:23:37;20.80;92.80
37974;DHT22;23796;51.458;7.000;2023-07-24T07:26:03;20.70;93.20
37974;DHT22;23796;51.458;7.000;2023-07-24T07:28:28;20.60;93.00
37974;DHT22;23796;51.458;7.000;2023-07-24T07:30:54;20.50;93.10
37974;DHT22;23796;51.458;7.000;2023-07-24T07:33:20;20.60;93.00
37974;DHT22;23796;51.458;7.000;2023-07-24T07:35:52;20.70;93.00
37974;DHT22;23796;51.458;7.000;2023-07-24T07:40:53;20.70;92.50
37974;DHT22;23796;51.458;7.000;2023-07-24T07:43:19;20.80;92.40
37974;DHT22;23796;51.458;7.000;2023-07-24T07:45:44;21.00;91.80
37974;DHT22;23796;51.458;7.000;2023-07-24T07:48:10;21.10;91.40
37974;DHT22;23796;51.458;7.000;2023-07-24T07:50:35;21.20;90.90
37974;DHT22;23796;51.458;7.000;2023-07-24T07:53:01;21.20;90.80
37974;DHT22;23796;51.458;7.000;2023-07-24T07:55:27;21.10;91.00
37974;DHT22;23796;51.458;7.000;2023-07-24T07:57:52;21.10;91.50
37974;DHT22;23796;51.458;7.000;2023-07-24T08:00:18;21.00;91.70
37974;DHT22;23796;51.458;7.000;2023-07-24T08:05:21;20.90;91.90
37974;DHT22;23796;51.458;7.000;2023-07-24T08:07:47;20.80;92.30
37974;DHT22;23796;51.458;7.000;2023-07-24T08:10:13;20.70;92.60
37974;DHT22;23796;51.458;7.000;2023-07-24T08:12:40;20.60;92.70
37974;DHT22;23796;51.458;7.000;2023-07-24T08:15:06;20.50;94.00
37974;DHT22;23796;51.458;7.000;2023-07-24T08:17:32;20.10;95.50
37974;DHT22;23796;51.458;7.000;2023-07-24T08:19:58;19.60;98.20
37974;DHT22;23796;51.458;7.000;2023-07-24T08:22:23;19.30;99.90
37974;DHT22;23796;51.458;7.000;2023-07-24T08:24:49;19.10;99.90
37974;DHT22;23796;51.458;7.000;2023-07-24T08:27:16;19.00;99.90
37974;DHT22;23796;51.458;7.000;2023-07-24T08:29:42;19.10;99.90
37974;DHT22;23796;51.458;7.000;2023-07-24T08:32:08;19.20;99.90
37974;DHT22;23796;51.458;7.000;2023-07-24T08:34:35;19.20;99.90
37974;DHT22;23796;51.458;7.000;2023-07-24T08:37:01;19.50;99.90
37974;DHT22;23796;51.458;7.000;2023-07-24T08:39:27;19.90;99.90
37974;DHT22;23796;51.458;7.000;2023-07-24T08:41:52;20.40;98.20
37974;DHT22;23796;51.458;7.000;2023-07-24T08:44:20;20.80;97.00
37974;DHT22;23796;51.458;7.000;2023-07-24T08:46:47;21.10;95.90
37974;DHT22;23796;51.458;7.000;2023-07-24T08:49:17;21.30;95.20
37974;DHT22;23796;51.458;7.000;2023-07-24T08:51:44;21.40;94.60
37974;DHT22;23796;51.458;7.000;2023-07-24T08:54:12;21.40;93.30
37974;DHT22;23796;51.458;7.000;2023-07-24T08:56:38;21.50;92.50
37974;DHT22;23796;51.458;7.000;2023-07-24T08:59:12;21.60;92.30
37974;DHT22;23796;51.458;7.000;2023-07-24T09:01:38;21.90;92.10
37974;DHT22;23796;51.458;7.000;2023-07-24T09:04:04;22.00;90.70
37974;DHT22;23796;51.458;7.000;2023-07-24T09:06:29;22.20;90.50
37974;DHT22;23796;51.458;7.000;2023-07-24T09:08:55;22.40;89.90
37974;DHT22;23796;51.458;7.000;2023-07-24T09:11:20;22.40;89.90
37974;DHT22;23796;51.458;7.000;2023-07-24T09:13:46;22.60;88.40
37974;DHT22;23796;51.458;7.000;2023-07-24T09:16:25;22.80;87.50
37974;DHT22;23796;51.458;7.000;2023-07-24T09:18:53;22.90;87.80
37974;DHT22;23796;51.458;7.000;2023-07-24T09:21:29;23.30;85.80
37974;DHT22;23796;51.458;7.000;2023-07-24T09:24:09;23.10;84.30
37974;DHT22;23796;51.458;7.000;2023-07-24T09:26:35;22.50;84.60
37974;DHT22;23796;51.458;7.000;2023-07-24T09:29:03;21.80;87.60
37974;DHT22;23796;51.458;7.000;2023-07-24T09:31:38;21.80;88.00
37974;DHT22;23796;51.458;7.000;2023-07-24T09:34:03;21.90;87.70
37974;DHT22;23796;51.458;7.000;2023-07-24T09:36:37;21.90;88.00
37974;DHT22;23796;51.458;7.000;2023-07-24T09:39:03;21.90;87.00
37974;DHT22;23796;51.458;7.000;2023-07-24T09:41:31;21.90;87.30
37974;DHT22;23796;51.458;7.000;2023-07-24T09:44:02;22.00;86.90
37974;DHT22;23796;51.458;7.000;2023-07-24T09:46:28;22.10;86.40
37974;DHT22;23796;51.458;7.000;2023-07-24T09:48:56;22.20;86.50
37974;DHT22;23796;51.458;7.000;2023-07-24T09:51:23;22.10;86.30
37974;DHT22;23796;51.458;7.000;2023-07-24T09:53:58;22.10;86.90
37974;DHT22;23796;51.458;7.000;2023-07-24T09:56:26;22.20;87.30
37974;DHT22;23796;51.458;7.000;2023-07-24T09:58:53;22.30;86.60
37974;DHT22;23796;51.458;7.000;2023-07-24T10:01:20;22.30;86.30
37974;DHT22;23796;51.458;7.000;2023-07-24T10:03:50;22.00;87.40
37974;DHT22;23796;51.458;7.000;2023-07-24T10:06:16;22.20;86.70
37974;DHT22;23796;51.458;7.000;2023-07-24T10:08:43;22.10;86.90
37974;DHT22;23796;51.458;7.000;2023-07-24T10:11:11;22.20;86.70
37974;DHT22;23796;51.458;7.000;2023-07-24T10:13:38;22.50;86.90
37974;DHT22;23796;51.458;7.000;2023-07-24T10:16:04;22.60;86.80
37974;DHT22;23796;51.458;7.000;2023-07-24T10:18:33;22.70;86.20
37974;DHT22;23796;51.458;7.000;2023-07-24T10:21:09;22.80;86.40
37974;DHT22;23796;51.458;7.000;2023-07-24T10:23:45;22.90;87.00
37974;DHT22;23796;51.458;7.000;2023-07-24T10:26:14;22.80;86.70
37974;DHT22;23796;51.458;7.000;2023-07-24T10:28:47;22.80;85.90
37974;DHT22;23796;51.458;7.000;2023-07-24T10:31:21;23.20;85.50
37974;DHT22;23796;51.458;7.000;2023-07-24T10:33:48;23.50;84.10
37974;DHT22;23796;51.458;7.000;2023-07-24T10:36:17;23.80;83.10
37974;DHT22;23796;51.458;7.000;2023-07-24T10:38:44;23.80;82.00
37974;DHT22;23796;51.458;7.000;2023-07-24T10:41:11;23.60;82.30
37974;DHT22;23796;51.458;7.000;2023-07-24T10:43:48;23.50;82.70
37974;DHT22;23796;51.458;7.000;2023-07-24T10:46:20;23.40;81.80
37974;DHT22;23796;51.458;7.000;2023-07-24T10:48:50;23.60;82.20
37974;DHT22;23796;51.458;7.000;2023-07-24T10:51:18;23.70;81.70
37974;DHT22;23796;51.458;7.000;2023-07-24T10:53:48;23.40;81.80
37974;DHT22;23796;51.458;7.000;2023-07-24T10:56:14;23.10;83.30
37974;DHT22;23796;51.458;7.000;2023-07-24T10:58:42;23.10;84.30
37974;DHT22;23796;51.458;7.000;2023-07-24T11:01:09;23.20;84.90
37974;DHT22;23796;51.458;7.000;2023-07-24T11:03:37;23.40;85.50
37974;DHT22;23796;51.458;7.000;2023-07-24T11:06:03;23.40;84.30
37974;DHT22;23796;51.458;7.000;2023-07-24T11:08:29;23.30;83.60
37974;DHT22;23796;51.458;7.000;2023-07-24T11:10:57;23.20;84.60
37974;DHT22;23796;51.458;7.000;2023-07-24T11:13:28;23.20;84.80
37974;DHT22;23796;51.458;7.000;2023-07-24T11:15:55;23.20;85.20
37974;DHT22;23796;51.458;7.000;2023-07-24T11:18:21;23.00;84.80
37974;DHT22;23796;51.458;7.000;2023-07-24T11:20:54;22.90;85.30
37974;DHT22;23796;51.458;7.000;2023-07-24T11:23:20;22.70;85.80
37974;DHT22;23796;51.458;7.000;2023-07-24T11:25:46;22.60;86.30
37974;DHT22;23796;51.458;7.000;2023-07-24T11:28:13;22.40;86.10
37974;DHT22;23796;51.458;7.000;2023-07-24T11:30:40;21.80;86.70
37974;DHT22;23796;51.458;7.000;2023-07-24T11:33:09;21.60;89.30
37974;DHT22;23796;51.458;7.000;2023-07-24T11:35:35;21.20;90.50
37974;DHT22;23796;51.458;7.000;2023-07-24T11:38:04;20.70;92.40
37974;DHT22;23796;51.458;7.000;2023-07-24T11:40:36;20.20;94.80
37974;DHT22;23796;51.458;7.000;2023-07-24T11:43:03;19.90;96.10
37974;DHT22;23796;51.458;7.000;2023-07-24T11:45:41;19.60;96.50
37974;DHT22;23796;51.458;7.000;2023-07-24T11:48:10;19.00;99.90
37974;DHT22;23796;51.458;7.000;2023-07-24T11:50:47;18.60;99.90
37974;DHT22;23796;51.458;7.000;2023-07-24T11:55:52;18.50;99.90
37974;DHT22;23796;51.458;7.000;2023-07-24T11:58:19;18.50;99.90
37974;DHT22;23796;51.458;7.000;2023-07-24T12:00:47;18.50;99.90
37974;DHT22;23796;51.458;7.000;2023-07-24T12:03:19;18.50;96.70
37974;DHT22;23796;51.458;7.000;2023-07-24T12:05:45;18.50;96.40
37974;DHT22;23796;51.458;7.000;2023-07-24T12:08:11;18.70;96.40
37974;DHT22;23796;51.458;7.000;2023-07-24T12:10:40;18.70;95.90
37974;DHT22;23796;51.458;7.000;2023-07-24T12:13:07;18.80;95.60
37974;DHT22;23796;51.458;7.000;2023-07-24T12:15:33;18.90;95.30
37974;DHT22;23796;51.458;7.000;2023-07-24T12:18:05;19.00;95.40
37974;DHT22;23796;51.458;7.000;2023-07-24T12:20:34;19.10;94.30
37974;DHT22;23796;51.458;7.000;2023-07-24T12:23:00;19.20;94.50
37974;DHT22;23796;51.458;7.000;2023-07-24T12:25:25;19.40;93.30
37974;DHT22;23796;51.458;7.000;2023-07-24T12:27:51;19.50;92.80
37974;DHT22;23796;51.458;7.000;2023-07-24T12:30:17;19.80;91.80
37974;DHT22;23796;51.458;7.000;2023-07-24T12:32:43;20.10;91.80
37974;DHT22;23796;51.458;7.000;2023-07-24T12:35:11;20.50;90.00
37974;DHT22;23796;51.458;7.000;2023-07-24T12:37:37;20.90;89.50
37974;DHT22;23796;51.458;7.000;2023-07-24T12:40:05;21.00;89.40
37974;DHT22;23796;51.458;7.000;2023-07-24T12:42:31;20.80;89.80
37974;DHT22;23796;51.458;7.000;2023-07-24T12:44:57;20.80;87.80
37974;DHT22;23796;51.458;7.000;2023-07-24T12:47:24;20.80;88.30
37974;DHT22;23796;51.458;7.000;2023-07-24T12:49:50;20.90;88.80
37974;DHT22;23796;51.458;7.000;2023-07-24T12:52:17;21.00;88.30
37974;DHT22;23796;51.458;7.000;2023-07-24T12:54:43;21.10;86.60
37974;DHT22;23796;51.458;7.000;2023-07-24T12:57:09;21.10;86.10
37974;DHT22;23796;51.458;7.000;2023-07-24T12:59:34;21.20;86.60
37974;DHT22;23796;51.458;7.000;2023-07-24T13:02:00;21.50;85.90
37974;DHT22;23796;51.458;7.000;2023-07-24T13:04:28;21.80;85.10
37974;DHT22;23796;51.458;7.000;2023-07-24T13:06:54;21.80;86.00
37974;DHT22;23796;51.458;7.000;2023-07-24T13:09:19;21.70;85.70
37974;DHT22;23796;51.458;7.000;2023-07-24T13:11:45;21.60;87.40
37974;DHT22;23796;51.458;7.000;2023-07-24T13:14:14;21.60;87.30
37974;DHT22;23796;51.458;7.000;2023-07-24T13:16:40;21.70;87.30
37974;DHT22;23796;51.458;7.000;2023-07-24T13:19:05;21.60;88.00
37974;DHT22;23796;51.458;7.000;2023-07-24T13:21:33;21.70;87.50
37974;DHT22;23796;51.458;7.000;2023-07-24T13:23:59;21.80;88.10
37974;DHT22;23796;51.458;7.000;2023-07-24T13:26:24;21.90;88.00
37974;DHT22;23796;51.458;7.000;2023-07-24T13:28:50;22.00;88.20
37974;DHT22;23796;51.458;7.000;2023-07-24T13:31:17;22.00;87.30
37974;DHT22;23796;51.458;7.000;2023-07-24T13:33:43;22.00;87.80
37974;DHT22;23796;51.458;7.000;2023-07-24T13:36:09;22.00;88.30
37974;DHT22;23796;51.458;7.000;2023-07-24T13:38:37;21.90;88.50
37974;DHT22;23796;51.458;7.000;2023-07-24T13:41:03;21.90;88.30
37974;DHT22;23796;51.458;7.000;2023-07-24T13:43:35;22.00;88.70
37974;DHT22;23796;51.458;7.000;2023-07-24T13:46:01;22.40;87.50
37974;DHT22;23796;51.458;7.000;2023-07-24T13:48:30;22.40;86.50
37974;DHT22;23796;51.458;7.000;2023-07-24T13:50:56;22.40;87.60
37974;DHT22;23796;51.458;7.000;2023-07-24T13:53:22;22.40;87.10
37974;DHT22;23796;51.458;7.000;2023-07-24T13:55:48;22.40;86.80
37974;DHT22;23796;51.458;7.000;2023-07-24T13:58:14;22.50;86.80
37974;DHT22;23796;51.458;7.000;2023-07-24T14:00:39;22.60;86.90
37974;DHT22;23796;51.458;7.000;2023-07-24T14:03:05;22.70;85.50
37974;DHT22;23796;51.458;7.000;2023-07-24T14:05:32;22.80;85.70
37974;DHT22;23796;51.458;7.000;2023-07-24T14:07:58;23.00;84.40
37974;DHT22;23796;51.458;7.000;2023-07-24T14:10:26;23.30;83.50
37974;DHT22;23796;51.458;7.000;2023-07-24T14:12:51;23.50;81.80
37974;DHT22;23796;51.458;7.000;2023-07-24T14:15:17;23.60;82.40
37974;DHT22;23796;51.458;7.000;2023-07-24T14:17:42;23.60;82.00
37974;DHT22;23796;51.458;7.000;2023-07-24T14:20:08;23.60;82.00
37974;DHT22;23796;51.458;7.000;2023-07-24T14:22:36;23.60;82.00
37974;DHT22;23796;51.458;7.000;2023-07-24T14:25:02;23.80;81.30
37974;DHT22;23796;51.458;7.000;2023-07-24T14:27:31;23.70;81.80
37974;DHT22;23796;51.458;7.000;2023-07-24T14:29:56;23.70;81.50
37974;DHT22;23796;51.458;7.000;2023-07-24T14:32:22;23.40;82.20
37974;DHT22;23796;51.458;7.000;2023-07-24T14:34:51;23.60;81.20
37974;DHT22;23796;51.458;7.000;2023-07-24T14:37:18;24.10;80.80
37974;DHT22;23796;51.458;7.000;2023-07-24T14:39:46;24.20;80.10
37974;DHT22;23796;51.458;7.000;2023-07-24T14:42:12;24.20;79.70
37974;DHT22;23796;51.458;7.000;2023-07-24T14:44:38;24.10;80.70
37974;DHT22;23796;51.458;7.000;2023-07-24T14:47:04;23.90;81.70
37974;DHT22;23796;51.458;7.000;2023-07-24T14:49:29;23.70;81.80
37974;DHT22;23796;51.458;7.000;2023-07-24T14:51:55;23.50;82.40
37974;DHT22;23796;51.458;7.000;2023-07-24T14:54:21;23.30;82.10
37974;DHT22;23796;51.458;7.000;2023-07-24T14:56:46;22.60;86.80
37974;DHT22;23796;51.458;7.000;2023-07-24T14:59:14;22.50;88.10
37974;DHT22;23796;51.458;7.000;2023-07-24T15:01:40;22.70;87.20
37974;DHT22;23796;51.458;7.000;2023-07-24T15:04:05;23.00;86.80
37974;DHT22;23796;51.458;7.000;2023-07-24T15:06:31;23.50;84.70
37974;DHT22;23796;51.458;7.000;2023-07-24T15:08:57;23.80;84.30
37974;DHT22;23796;51.458;7.000;2023-07-24T15:11:23;24.00;83.40
37974;DHT22;23796;51.458;7.000;2023-07-24T15:13:52;23.50;83.80
37974;DHT22;23796;51.458;7.000;2023-07-24T15:16:17;23.30;85.60
37974;DHT22;23796;51.458;7.000;2023-07-24T15:18:43;23.40;85.60
37974;DHT22;23796;51.458;7.000;2023-07-24T15:21:10;23.70;85.10
37974;DHT22;23796;51.458;7.000;2023-07-24T15:23:40;23.90;81.70
37974;DHT22;23796;51.458;7.000;2023-07-24T15:26:06;23.80;82.20
37974;DHT22;23796;51.458;7.000;2023-07-24T15:28:31;23.90;81.60
37974;DHT22;23796;51.458;7.000;2023-07-24T15:30:57;23.90;82.20
37974;DHT22;23796;51.458;7.000;2023-07-24T15:33:23;24.00;82.00
37974;DHT22;23796;51.458;7.000;2023-07-24T15:35:49;24.00;80.90
37974;DHT22;23796;51.458;7.000;2023-07-24T15:38:15;24.00;80.50
37974;DHT22;23796;51.458;7.000;2023-07-24T15:40:43;23.70;79.40